Guymon, OK

3:19 AM CDT on April 30, 2017 (GMT -0500)
Guymon Municipal | | Change Station
Active Advisory: Winter Storm Warning

Elev 3123 ft 36.69 °N, 101.51 °W | Updated 10 minutes ago

Light Snow
Light Snow Mist
33 °F
Feels Like 19 °F
N
32
Wind Variable Wind from NNW
Gusts 43 mph

Today
High -- | Low -- °F
--% Chance of Precip.
Yesterday
High -- | Low -- °F
Precip. -- in
Pressure 29.76 in
Visibility 1.0 miles
Clouds Overcast 600 ft
Windchill 19 °F
Dew Point 33 °F
Humidity 100%
Rainfall 0.24 in
Snow Depth Not available.
6:52 AM 8:33 PM
Waxing Crescent, 20% visible
SPECI KGUY 300809Z AUTO 34028G37KT 1SM -SN BR OVC006 01/01 A2976 RMK AO2 PK WND 35037/0809 P0001 T00060006 $
Pressure 29.76 in
Visibility 1.0 miles
Clouds Overcast 600 ft
Windchill 19 °F
Dew Point 33 °F
Humidity 100%
Rainfall 0.24 in
Snow Depth Not available.
6:52 AM 8:33 PM
Waxing Crescent, 20% visible
SPECI KGUY 300809Z AUTO 34028G37KT 1SM -SN BR OVC006 01/01 A2976 RMK AO2 PK WND 35037/0809 P0001 T00060006 $

Get Your Daily Forecast Email!

Thanks for signing up!

Be on the lookout for a verification email in your inbox.

You'll start receiving severe weather alerts in your inbox..

×

10-Day Weather Forecast

Almanac

Astronomy

Apr. 30, 2017 Rise Set
Actual Time
Civil Twilight
Nautical Twilight
Astronomical Twilight
Moon
Length of Visible Light
Length of Day
Tomorrow will be .
, % of the Moon is Illuminated

Today's Extremes

State Highs State Lows

Community

WunderPhotos

WunderBlog® & News

Nearby

Air Quality

  Air Quality AQ Index Pollutant
Not available.

Snow Depth

Station Depth Elevation

Earthquake Activity

City Distance Mag. Time & Date
Minimum magnitude displayed is 2.5.

Coastal Water Temperatures

Place Temperature

Stations

Nearby Weather Stations

Station Location Temp. Windchill Dew Point Humidity Wind Precip. Elev Updated Type
                   

Watches & Warnings

Winter Storm Warning
Issued: 9:38 PM CDT Apr. 29, 2017 – National Weather Service

... Winter Storm Warning remains in effect until 7 PM CDT Sunday...

* timing... through 7 PM Sunday.

* Precip type... snow.

* Accumulations... storm total snow accumulations of 6 to 12 inches
are expected, with the highest amounts along the extreme
northwest Texas and Oklahoma Panhandle.

* Impacts... the potential exists for very difficult to
impossible driving conditions due to reduction in visibility
along with slick roadways. North winds 25 to 35 mph with
higher gusts will cause drifting of snow and reduced
visibilities. Power outages may occur.

Precautionary/preparedness actions...

A Winter Storm Warning means significant amounts of snow...
sleet... or ice are expected or occurring. Strong winds are also
possible. This will make travel very hazardous or impossible.